sensor_id;sensor_type;location;lat;lon;timestamp;P1;durP1;ratioP1;P2;durP2;ratioP2
1404;SDS011;697;51.114;6.542;2022-07-23T00:00:11;5.93;;;5.53;;
1404;SDS011;697;51.114;6.542;2022-07-23T00:02:38;6.10;;;5.40;;
1404;SDS011;697;51.114;6.542;2022-07-23T00:05:05;6.03;;;5.30;;
1404;SDS011;697;51.114;6.542;2022-07-23T00:07:32;8.67;;;6.03;;
1404;SDS011;697;51.114;6.542;2022-07-23T00:10:01;6.03;;;5.43;;
1404;SDS011;697;51.114;6.542;2022-07-23T00:12:28;7.13;;;6.53;;
1404;SDS011;697;51.114;6.542;2022-07-23T00:14:54;7.20;;;6.50;;
1404;SDS011;697;51.114;6.542;2022-07-23T00:17:21;6.77;;;6.17;;
1404;SDS011;697;51.114;6.542;2022-07-23T00:19:48;6.73;;;6.13;;
1404;SDS011;697;51.114;6.542;2022-07-23T00:22:14;7.00;;;6.00;;
1404;SDS011;697;51.114;6.542;2022-07-23T00:24:41;6.80;;;6.10;;
1404;SDS011;697;51.114;6.542;2022-07-23T00:27:09;7.43;;;6.23;;
1404;SDS011;697;51.114;6.542;2022-07-23T00:29:36;6.37;;;5.87;;
1404;SDS011;697;51.114;6.542;2022-07-23T00:32:03;6.40;;;5.77;;
1404;SDS011;697;51.114;6.542;2022-07-23T00:34:30;6.37;;;5.77;;
1404;SDS011;697;51.114;6.542;2022-07-23T00:36:57;6.07;;;5.57;;
1404;SDS011;697;51.114;6.542;2022-07-23T00:39:24;7.17;;;6.57;;
1404;SDS011;697;51.114;6.542;2022-07-23T00:41:51;7.40;;;6.80;;
1404;SDS011;697;51.114;6.542;2022-07-23T00:44:20;6.90;;;6.40;;
1404;SDS011;697;51.114;6.542;2022-07-23T00:46:49;7.90;;;7.20;;
1404;SDS011;697;51.114;6.542;2022-07-23T00:49:18;8.03;;;7.33;;
1404;SDS011;697;51.114;6.542;2022-07-23T00:51:45;7.37;;;6.77;;
1404;SDS011;697;51.114;6.542;2022-07-23T00:54:12;11.50;;;6.80;;
1404;SDS011;697;51.114;6.542;2022-07-23T00:56:39;7.53;;;6.83;;
1404;SDS011;697;51.114;6.542;2022-07-23T00:59:07;7.57;;;6.90;;
1404;SDS011;697;51.114;6.542;2022-07-23T01:01:36;7.37;;;6.67;;
1404;SDS011;697;51.114;6.542;2022-07-23T01:04:03;9.70;;;8.10;;
1404;SDS011;697;51.114;6.542;2022-07-23T01:06:30;7.70;;;7.00;;
1404;SDS011;697;51.114;6.542;2022-07-23T01:09:00;8.27;;;7.47;;
1404;SDS011;697;51.114;6.542;2022-07-23T01:11:27;7.57;;;6.87;;
1404;SDS011;697;51.114;6.542;2022-07-23T01:13:54;7.70;;;7.00;;
1404;SDS011;697;51.114;6.542;2022-07-23T01:16:20;8.07;;;7.20;;
1404;SDS011;697;51.114;6.542;2022-07-23T01:18:48;8.23;;;7.43;;
1404;SDS011;697;51.114;6.542;2022-07-23T01:21:15;7.00;;;6.40;;
1404;SDS011;697;51.114;6.542;2022-07-23T01:23:45;8.80;;;8.00;;
1404;SDS011;697;51.114;6.542;2022-07-23T01:26:12;8.20;;;7.50;;
1404;SDS011;697;51.114;6.542;2022-07-23T01:28:42;8.20;;;7.40;;
1404;SDS011;697;51.114;6.542;2022-07-23T01:31:09;7.50;;;6.83;;
1404;SDS011;697;51.114;6.542;2022-07-23T01:33:36;7.10;;;6.50;;
1404;SDS011;697;51.114;6.542;2022-07-23T01:36:03;7.63;;;6.93;;
1404;SDS011;697;51.114;6.542;2022-07-23T01:38:30;7.90;;;7.10;;
1404;SDS011;697;51.114;6.542;2022-07-23T01:40:58;7.50;;;6.90;;
1404;SDS011;697;51.114;6.542;2022-07-23T01:43:24;5.70;;;5.20;;
1404;SDS011;697;51.114;6.542;2022-07-23T01:45:51;6.10;;;5.70;;
1404;SDS011;697;51.114;6.542;2022-07-23T01:48:18;6.03;;;5.60;;
1404;SDS011;697;51.114;6.542;2022-07-23T01:50:45;7.10;;;6.40;;
1404;SDS011;697;51.114;6.542;2022-07-23T01:53:13;7.50;;;6.80;;
1404;SDS011;697;51.114;6.542;2022-07-23T01:55:40;5.80;;;5.30;;
1404;SDS011;697;51.114;6.542;2022-07-23T01:58:08;6.80;;;6.00;;
1404;SDS011;697;51.114;6.542;2022-07-23T02:00:35;7.20;;;6.70;;
1404;SDS011;697;51.114;6.542;2022-07-23T02:03:02;6.70;;;6.03;;
1404;SDS011;697;51.114;6.542;2022-07-23T02:05:28;7.00;;;6.40;;
1404;SDS011;697;51.114;6.542;2022-07-23T02:07:56;5.60;;;5.10;;
1404;SDS011;697;51.114;6.542;2022-07-23T02:10:23;6.53;;;6.03;;
1404;SDS011;697;51.114;6.542;2022-07-23T02:12:50;6.07;;;5.57;;
1404;SDS011;697;51.114;6.542;2022-07-23T02:15:18;6.07;;;5.10;;
1404;SDS011;697;51.114;6.542;2022-07-23T02:17:45;6.40;;;5.63;;
1404;SDS011;697;51.114;6.542;2022-07-23T02:20:12;5.57;;;5.17;;
1404;SDS011;697;51.114;6.542;2022-07-23T02:22:39;5.37;;;5.03;;
1404;SDS011;697;51.114;6.542;2022-07-23T02:25:06;6.07;;;5.57;;
1404;SDS011;697;51.114;6.542;2022-07-23T02:27:34;6.10;;;5.60;;
1404;SDS011;697;51.114;6.542;2022-07-23T02:30:01;7.17;;;6.53;;
1404;SDS011;697;51.114;6.542;2022-07-23T02:32:30;6.53;;;6.03;;
1404;SDS011;697;51.114;6.542;2022-07-23T02:34:57;7.00;;;6.40;;
1404;SDS011;697;51.114;6.542;2022-07-23T02:37:23;7.17;;;6.57;;
1404;SDS011;697;51.114;6.542;2022-07-23T02:39:50;6.27;;;5.67;;
1404;SDS011;697;51.114;6.542;2022-07-23T02:42:17;7.10;;;6.37;;
1404;SDS011;697;51.114;6.542;2022-07-23T02:44:44;5.73;;;4.97;;
1404;SDS011;697;51.114;6.542;2022-07-23T02:47:11;7.20;;;6.60;;
1404;SDS011;697;51.114;6.542;2022-07-23T02:49:39;6.50;;;5.90;;
1404;SDS011;697;51.114;6.542;2022-07-23T02:52:06;6.47;;;5.97;;
1404;SDS011;697;51.114;6.542;2022-07-23T02:54:33;6.77;;;6.17;;
1404;SDS011;697;51.114;6.542;2022-07-23T02:56:59;7.87;;;6.80;;
1404;SDS011;697;51.114;6.542;2022-07-23T02:59:26;7.00;;;6.40;;
1404;SDS011;697;51.114;6.542;2022-07-23T03:01:53;6.77;;;6.17;;
1404;SDS011;697;51.114;6.542;2022-07-23T03:04:20;6.80;;;5.90;;
1404;SDS011;697;51.114;6.542;2022-07-23T03:06:48;6.47;;;5.97;;
1404;SDS011;697;51.114;6.542;2022-07-23T03:09:14;6.93;;;6.33;;
1404;SDS011;697;51.114;6.542;2022-07-23T03:11:41;8.43;;;5.97;;
1404;SDS011;697;51.114;6.542;2022-07-23T03:14:08;6.43;;;5.80;;
1404;SDS011;697;51.114;6.542;2022-07-23T03:16:38;7.17;;;6.50;;
1404;SDS011;697;51.114;6.542;2022-07-23T03:19:05;6.27;;;5.67;;
1404;SDS011;697;51.114;6.542;2022-07-23T03:21:31;4.97;;;4.60;;
1404;SDS011;697;51.114;6.542;2022-07-23T03:24:00;4.47;;;4.13;;
1404;SDS011;697;51.114;6.542;2022-07-23T03:26:27;3.70;;;3.50;;
1404;SDS011;697;51.114;6.542;2022-07-23T03:28:54;4.00;;;3.60;;
1404;SDS011;697;51.114;6.542;2022-07-23T03:31:20;6.10;;;4.13;;
1404;SDS011;697;51.114;6.542;2022-07-23T03:33:47;3.60;;;3.30;;
1404;SDS011;697;51.114;6.542;2022-07-23T03:36:14;3.93;;;3.63;;
1404;SDS011;697;51.114;6.542;2022-07-23T03:38:40;4.07;;;3.67;;
1404;SDS011;697;51.114;6.542;2022-07-23T03:41:09;4.70;;;4.37;;
1404;SDS011;697;51.114;6.542;2022-07-23T03:43:35;8.93;;;5.07;;
1404;SDS011;697;51.114;6.542;2022-07-23T03:46:02;5.57;;;5.07;;
1404;SDS011;697;51.114;6.542;2022-07-23T03:48:29;5.60;;;5.10;;
1404;SDS011;697;51.114;6.542;2022-07-23T03:50:55;6.30;;;5.80;;
1404;SDS011;697;51.114;6.542;2022-07-23T03:53:22;7.03;;;6.37;;
1404;SDS011;697;51.114;6.542;2022-07-23T03:55:49;7.60;;;4.00;;
1404;SDS011;697;51.114;6.542;2022-07-23T03:58:17;5.47;;;4.10;;
1404;SDS011;697;51.114;6.542;2022-07-23T04:00:44;5.20;;;4.80;;
1404;SDS011;697;51.114;6.542;2022-07-23T04:03:11;5.20;;;4.80;;
1404;SDS011;697;51.114;6.542;2022-07-23T04:05:38;4.80;;;4.33;;
1404;SDS011;697;51.114;6.542;2022-07-23T04:08:04;4.63;;;4.23;;
1404;SDS011;697;51.114;6.542;2022-07-23T04:10:31;5.87;;;4.27;;
1404;SDS011;697;51.114;6.542;2022-07-23T04:12:58;4.90;;;4.60;;
1404;SDS011;697;51.114;6.542;2022-07-23T04:15:26;5.13;;;4.63;;
1404;SDS011;697;51.114;6.542;2022-07-23T04:17:53;4.30;;;4.00;;
1404;SDS011;697;51.114;6.542;2022-07-23T04:20:19;4.30;;;4.00;;
1404;SDS011;697;51.114;6.542;2022-07-23T04:22:46;4.57;;;4.17;;
1404;SDS011;697;51.114;6.542;2022-07-23T04:25:13;6.23;;;4.50;;
1404;SDS011;697;51.114;6.542;2022-07-23T04:27:41;5.87;;;5.37;;
1404;SDS011;697;51.114;6.542;2022-07-23T04:30:08;6.03;;;5.43;;
1404;SDS011;697;51.114;6.542;2022-07-23T04:32:36;6.03;;;5.57;;
1404;SDS011;697;51.114;6.542;2022-07-23T04:35:03;7.80;;;7.10;;
1404;SDS011;697;51.114;6.542;2022-07-23T04:37:30;7.13;;;6.43;;
1404;SDS011;697;51.114;6.542;2022-07-23T04:39:57;6.50;;;6.00;;
1404;SDS011;697;51.114;6.542;2022-07-23T04:42:24;7.53;;;6.73;;
1404;SDS011;697;51.114;6.542;2022-07-23T04:44:51;7.67;;;6.47;;
1404;SDS011;697;51.114;6.542;2022-07-23T04:47:17;8.30;;;7.13;;
1404;SDS011;697;51.114;6.542;2022-07-23T04:49:45;8.23;;;7.43;;
1404;SDS011;697;51.114;6.542;2022-07-23T04:52:12;10.00;;;8.57;;
1404;SDS011;697;51.114;6.542;2022-07-23T04:54:40;9.63;;;8.70;;
1404;SDS011;697;51.114;6.542;2022-07-23T04:57:07;8.80;;;7.70;;
1404;SDS011;697;51.114;6.542;2022-07-23T04:59:33;9.20;;;8.30;;
1404;SDS011;697;51.114;6.542;2022-07-23T05:02:00;13.03;;;9.00;;
1404;SDS011;697;51.114;6.542;2022-07-23T05:04:27;8.93;;;7.90;;
1404;SDS011;697;51.114;6.542;2022-07-23T05:06:55;11.30;;;8.53;;
1404;SDS011;697;51.114;6.542;2022-07-23T05:09:22;9.33;;;8.30;;
1404;SDS011;697;51.114;6.542;2022-07-23T05:11:49;10.00;;;8.80;;
1404;SDS011;697;51.114;6.542;2022-07-23T05:14:15;10.73;;;8.43;;
1404;SDS011;697;51.114;6.542;2022-07-23T05:16:42;13.70;;;9.60;;
1404;SDS011;697;51.114;6.542;2022-07-23T05:19:09;12.57;;;9.30;;
1404;SDS011;697;51.114;6.542;2022-07-23T05:21:36;11.70;;;9.00;;
1404;SDS011;697;51.114;6.542;2022-07-23T05:24:05;11.73;;;9.30;;
1404;SDS011;697;51.114;6.542;2022-07-23T05:26:32;10.17;;;9.17;;
1404;SDS011;697;51.114;6.542;2022-07-23T05:28:59;10.43;;;9.37;;
1404;SDS011;697;51.114;6.542;2022-07-23T05:31:25;11.97;;;9.33;;
1404;SDS011;697;51.114;6.542;2022-07-23T05:33:52;12.47;;;8.93;;
1404;SDS011;697;51.114;6.542;2022-07-23T05:36:19;14.53;;;9.80;;
1404;SDS011;697;51.114;6.542;2022-07-23T05:38:46;12.07;;;10.17;;
1404;SDS011;697;51.114;6.542;2022-07-23T05:41:14;13.67;;;10.27;;
1404;SDS011;697;51.114;6.542;2022-07-23T05:43:41;10.93;;;9.77;;
1404;SDS011;697;51.114;6.542;2022-07-23T05:46:08;17.23;;;10.47;;
1404;SDS011;697;51.114;6.542;2022-07-23T05:48:35;17.80;;;10.77;;
1404;SDS011;697;51.114;6.542;2022-07-23T05:51:01;11.67;;;10.47;;
1404;SDS011;697;51.114;6.542;2022-07-23T05:53:31;12.27;;;11.03;;
1404;SDS011;697;51.114;6.542;2022-07-23T05:55:58;12.50;;;11.30;;
1404;SDS011;697;51.114;6.542;2022-07-23T05:58:26;13.13;;;11.73;;
1404;SDS011;697;51.114;6.542;2022-07-23T06:00:53;16.23;;;11.73;;
1404;SDS011;697;51.114;6.542;2022-07-23T06:03:19;13.03;;;11.63;;
1404;SDS011;697;51.114;6.542;2022-07-23T06:05:46;12.27;;;11.10;;
1404;SDS011;697;51.114;6.542;2022-07-23T06:08:13;9.90;;;9.00;;
1404;SDS011;697;51.114;6.542;2022-07-23T06:10:40;12.23;;;10.60;;
1404;SDS011;697;51.114;6.542;2022-07-23T06:13:07;14.63;;;11.83;;
1404;SDS011;697;51.114;6.542;2022-07-23T06:15:35;11.70;;;10.70;;
1404;SDS011;697;51.114;6.542;2022-07-23T06:18:02;14.17;;;11.90;;
1404;SDS011;697;51.114;6.542;2022-07-23T06:20:29;12.87;;;11.60;;
1404;SDS011;697;51.114;6.542;2022-07-23T06:22:56;11.63;;;10.53;;
1404;SDS011;697;51.114;6.542;2022-07-23T06:25:22;15.17;;;13.57;;
1404;SDS011;697;51.114;6.542;2022-07-23T06:27:49;15.07;;;13.07;;
1404;SDS011;697;51.114;6.542;2022-07-23T06:30:16;12.87;;;11.20;;
1404;SDS011;697;51.114;6.542;2022-07-23T06:32:45;13.23;;;11.50;;
1404;SDS011;697;51.114;6.542;2022-07-23T06:35:11;17.30;;;12.03;;
1404;SDS011;697;51.114;6.542;2022-07-23T06:37:38;16.97;;;13.17;;
1404;SDS011;697;51.114;6.542;2022-07-23T06:40:05;14.80;;;13.30;;
1404;SDS011;697;51.114;6.542;2022-07-23T06:42:33;13.23;;;11.47;;
1404;SDS011;697;51.114;6.542;2022-07-23T06:45:01;18.10;;;14.80;;
1404;SDS011;697;51.114;6.542;2022-07-23T06:47:28;15.27;;;13.60;;
1404;SDS011;697;51.114;6.542;2022-07-23T06:49:56;15.07;;;13.70;;
1404;SDS011;697;51.114;6.542;2022-07-23T06:52:23;22.13;;;15.43;;
1404;SDS011;697;51.114;6.542;2022-07-23T06:54:51;19.47;;;15.67;;
1404;SDS011;697;51.114;6.542;2022-07-23T06:57:17;18.07;;;16.30;;
1404;SDS011;697;51.114;6.542;2022-07-23T06:59:44;19.83;;;15.30;;
1404;SDS011;697;51.114;6.542;2022-07-23T07:02:11;21.90;;;16.07;;
1404;SDS011;697;51.114;6.542;2022-07-23T07:04:38;20.60;;;15.47;;
1404;SDS011;697;51.114;6.542;2022-07-23T07:07:06;18.10;;;15.30;;
1404;SDS011;697;51.114;6.542;2022-07-23T07:09:32;14.70;;;12.83;;
1404;SDS011;697;51.114;6.542;2022-07-23T07:11:59;16.80;;;14.23;;
1404;SDS011;697;51.114;6.542;2022-07-23T07:14:26;18.13;;;16.40;;
1404;SDS011;697;51.114;6.542;2022-07-23T07:16:53;17.17;;;14.00;;
1404;SDS011;697;51.114;6.542;2022-07-23T07:19:20;18.33;;;14.73;;
1404;SDS011;697;51.114;6.542;2022-07-23T07:21:47;20.23;;;17.50;;
1404;SDS011;697;51.114;6.542;2022-07-23T07:24:15;18.60;;;16.80;;
1404;SDS011;697;51.114;6.542;2022-07-23T07:26:41;24.40;;;18.20;;
1404;SDS011;697;51.114;6.542;2022-07-23T07:29:08;17.50;;;15.20;;
1404;SDS011;697;51.114;6.542;2022-07-23T07:31:35;20.67;;;16.43;;
1404;SDS011;697;51.114;6.542;2022-07-23T07:34:02;19.87;;;17.73;;
1404;SDS011;697;51.114;6.542;2022-07-23T07:36:28;24.30;;;17.27;;
1404;SDS011;697;51.114;6.542;2022-07-23T07:38:55;21.37;;;19.10;;
1404;SDS011;697;51.114;6.542;2022-07-23T07:41:23;23.80;;;18.97;;
1404;SDS011;697;51.114;6.542;2022-07-23T07:43:51;20.63;;;17.60;;
1404;SDS011;697;51.114;6.542;2022-07-23T07:46:18;21.43;;;18.20;;
1404;SDS011;697;51.114;6.542;2022-07-23T07:48:45;21.67;;;18.90;;
1404;SDS011;697;51.114;6.542;2022-07-23T07:51:11;25.20;;;19.77;;
1404;SDS011;697;51.114;6.542;2022-07-23T07:53:38;17.87;;;15.97;;
1404;SDS011;697;51.114;6.542;2022-07-23T07:56:05;18.73;;;16.60;;
1404;SDS011;697;51.114;6.542;2022-07-23T07:58:33;15.47;;;12.67;;
1404;SDS011;697;51.114;6.542;2022-07-23T08:01:00;17.23;;;14.67;;
1404;SDS011;697;51.114;6.542;2022-07-23T08:03:27;19.63;;;16.23;;
1404;SDS011;697;51.114;6.542;2022-07-23T08:05:54;19.30;;;15.60;;
1404;SDS011;697;51.114;6.542;2022-07-23T08:08:21;19.03;;;15.83;;
1404;SDS011;697;51.114;6.542;2022-07-23T08:10:48;16.23;;;11.60;;
1404;SDS011;697;51.114;6.542;2022-07-23T08:13:15;14.37;;;12.47;;
1404;SDS011;697;51.114;6.542;2022-07-23T08:15:44;16.57;;;12.23;;
1404;SDS011;697;51.114;6.542;2022-07-23T08:18:11;14.33;;;10.07;;
1404;SDS011;697;51.114;6.542;2022-07-23T08:20:38;13.30;;;10.27;;
1404;SDS011;697;51.114;6.542;2022-07-23T08:23:06;11.83;;;9.20;;
1404;SDS011;697;51.114;6.542;2022-07-23T08:25:35;12.00;;;10.80;;
1404;SDS011;697;51.114;6.542;2022-07-23T08:28:03;14.37;;;10.50;;
1404;SDS011;697;51.114;6.542;2022-07-23T08:30:31;15.90;;;11.33;;
1404;SDS011;697;51.114;6.542;2022-07-23T08:33:00;9.50;;;8.20;;
1404;SDS011;697;51.114;6.542;2022-07-23T08:35:29;9.70;;;7.97;;
1404;SDS011;697;51.114;6.542;2022-07-23T08:37:57;9.07;;;8.10;;
1404;SDS011;697;51.114;6.542;2022-07-23T08:40:25;12.07;;;9.80;;
1404;SDS011;697;51.114;6.542;2022-07-23T08:42:52;13.37;;;10.57;;
1404;SDS011;697;51.114;6.542;2022-07-23T08:45:20;7.10;;;6.40;;
1404;SDS011;697;51.114;6.542;2022-07-23T08:47:48;9.30;;;6.93;;
1404;SDS011;697;51.114;6.542;2022-07-23T08:50:17;12.10;;;10.93;;
1404;SDS011;697;51.114;6.542;2022-07-23T08:52:45;9.70;;;8.50;;
1404;SDS011;697;51.114;6.542;2022-07-23T08:55:12;8.10;;;6.70;;
1404;SDS011;697;51.114;6.542;2022-07-23T08:57:39;6.10;;;5.50;;
1404;SDS011;697;51.114;6.542;2022-07-23T09:00:06;11.13;;;10.03;;
1404;SDS011;697;51.114;6.542;2022-07-23T09:02:38;6.73;;;6.10;;
1404;SDS011;697;51.114;6.542;2022-07-23T09:05:06;6.13;;;5.63;;
1404;SDS011;697;51.114;6.542;2022-07-23T09:07:34;7.43;;;5.03;;
1404;SDS011;697;51.114;6.542;2022-07-23T09:10:05;7.80;;;6.10;;
1404;SDS011;697;51.114;6.542;2022-07-23T09:12:34;6.03;;;5.47;;
1404;SDS011;697;51.114;6.542;2022-07-23T09:15:05;8.83;;;8.03;;
1404;SDS011;697;51.114;6.542;2022-07-23T09:17:36;5.20;;;4.70;;
1404;SDS011;697;51.114;6.542;2022-07-23T09:20:08;7.53;;;6.93;;
1404;SDS011;697;51.114;6.542;2022-07-23T09:22:38;6.60;;;6.00;;
1404;SDS011;697;51.114;6.542;2022-07-23T09:25:07;8.30;;;7.57;;
1404;SDS011;697;51.114;6.542;2022-07-23T09:27:45;7.63;;;6.10;;
1404;SDS011;697;51.114;6.542;2022-07-23T09:30:15;5.50;;;5.00;;
1404;SDS011;697;51.114;6.542;2022-07-23T09:32:42;4.80;;;4.40;;
1404;SDS011;697;51.114;6.542;2022-07-23T09:35:09;5.30;;;4.90;;
1404;SDS011;697;51.114;6.542;2022-07-23T09:37:38;13.10;;;8.20;;
1404;SDS011;697;51.114;6.542;2022-07-23T09:40:05;7.10;;;6.50;;
1404;SDS011;697;51.114;6.542;2022-07-23T09:42:33;6.47;;;5.97;;
1404;SDS011;697;51.114;6.542;2022-07-23T09:45:00;7.40;;;6.87;;
1404;SDS011;697;51.114;6.542;2022-07-23T09:47:28;5.90;;;5.40;;
1404;SDS011;697;51.114;6.542;2022-07-23T09:50:00;8.00;;;5.50;;
1404;SDS011;697;51.114;6.542;2022-07-23T09:52:30;6.33;;;5.80;;
1404;SDS011;697;51.114;6.542;2022-07-23T09:55:00;6.20;;;5.60;;
1404;SDS011;697;51.114;6.542;2022-07-23T09:57:28;10.97;;;6.80;;
1404;SDS011;697;51.114;6.542;2022-07-23T09:59:57;8.30;;;6.47;;
1404;SDS011;697;51.114;6.542;2022-07-23T10:02:29;7.10;;;6.10;;
1404;SDS011;697;51.114;6.542;2022-07-23T10:05:00;7.47;;;6.77;;
1404;SDS011;697;51.114;6.542;2022-07-23T10:07:28;5.97;;;5.43;;
1404;SDS011;697;51.114;6.542;2022-07-23T10:10:01;5.70;;;4.80;;
1404;SDS011;697;51.114;6.542;2022-07-23T10:12:29;4.13;;;3.73;;
1404;SDS011;697;51.114;6.542;2022-07-23T10:15:14;6.20;;;4.30;;
1404;SDS011;697;51.114;6.542;2022-07-23T10:17:41;2.40;;;2.20;;
1404;SDS011;697;51.114;6.542;2022-07-23T10:20:07;2.77;;;2.57;;
1404;SDS011;697;51.114;6.542;2022-07-23T10:22:35;3.60;;;2.93;;
1404;SDS011;697;51.114;6.542;2022-07-23T10:25:10;5.67;;;5.20;;
1404;SDS011;697;51.114;6.542;2022-07-23T10:28:04;4.33;;;3.93;;
1404;SDS011;697;51.114;6.542;2022-07-23T10:30:39;4.93;;;4.47;;
1404;SDS011;697;51.114;6.542;2022-07-23T10:33:23;3.10;;;2.80;;
1404;SDS011;697;51.114;6.542;2022-07-23T10:35:57;4.13;;;2.93;;
1404;SDS011;697;51.114;6.542;2022-07-23T10:38:30;2.60;;;2.00;;
1404;SDS011;697;51.114;6.542;2022-07-23T10:41:03;2.73;;;2.37;;
1404;SDS011;697;51.114;6.542;2022-07-23T10:43:31;3.53;;;3.20;;
1404;SDS011;697;51.114;6.542;2022-07-23T10:46:21;3.70;;;3.40;;
1404;SDS011;697;51.114;6.542;2022-07-23T10:54:42;2.33;;;1.93;;
1404;SDS011;697;51.114;6.542;2022-07-23T10:57:11;2.93;;;2.67;;
1404;SDS011;697;51.114;6.542;2022-07-23T11:02:51;3.10;;;2.22;;
1404;SDS011;697;51.114;6.542;2022-07-23T11:05:19;1.67;;;1.58;;
1404;SDS011;697;51.114;6.542;2022-07-23T11:10:43;2.53;;;2.33;;
1404;SDS011;697;51.114;6.542;2022-07-23T11:16:12;2.25;;;1.70;;
1404;SDS011;697;51.114;6.542;2022-07-23T11:21:41;2.50;;;2.20;;
1404;SDS011;697;51.114;6.542;2022-07-23T11:24:22;3.85;;;2.13;;
1404;SDS011;697;51.114;6.542;2022-07-23T11:26:50;2.50;;;2.30;;
1404;SDS011;697;51.114;6.542;2022-07-23T11:29:49;2.83;;;1.83;;
1404;SDS011;697;51.114;6.542;2022-07-23T11:35:21;2.45;;;1.90;;
1404;SDS011;697;51.114;6.542;2022-07-23T11:37:50;2.47;;;2.00;;
1404;SDS011;697;51.114;6.542;2022-07-23T11:40:23;1.83;;;1.73;;
1404;SDS011;697;51.114;6.542;2022-07-23T11:42:52;2.28;;;1.60;;
1404;SDS011;697;51.114;6.542;2022-07-23T11:45:24;2.95;;;1.65;;
1404;SDS011;697;51.114;6.542;2022-07-23T11:47:55;2.28;;;1.65;;
1404;SDS011;697;51.114;6.542;2022-07-23T11:50:22;2.67;;;1.73;;
1404;SDS011;697;51.114;6.542;2022-07-23T11:52:50;2.83;;;1.70;;
1404;SDS011;697;51.114;6.542;2022-07-23T11:55:17;3.63;;;2.20;;
1404;SDS011;697;51.114;6.542;2022-07-23T11:57:44;3.13;;;2.28;;
1404;SDS011;697;51.114;6.542;2022-07-23T12:00:12;2.33;;;1.60;;
1404;SDS011;697;51.114;6.542;2022-07-23T12:02:43;2.88;;;2.08;;
1404;SDS011;697;51.114;6.542;2022-07-23T12:05:11;1.60;;;1.50;;
1404;SDS011;697;51.114;6.542;2022-07-23T12:07:40;1.60;;;1.50;;
1404;SDS011;697;51.114;6.542;2022-07-23T12:10:10;2.00;;;1.80;;
1404;SDS011;697;51.114;6.542;2022-07-23T12:12:39;2.35;;;1.38;;
1404;SDS011;697;51.114;6.542;2022-07-23T12:15:08;2.47;;;2.17;;
1404;SDS011;697;51.114;6.542;2022-07-23T12:17:37;1.83;;;1.40;;
1404;SDS011;697;51.114;6.542;2022-07-23T12:20:08;4.20;;;1.83;;
1404;SDS011;697;51.114;6.542;2022-07-23T12:22:37;1.55;;;1.45;;
1404;SDS011;697;51.114;6.542;2022-07-23T12:25:06;2.15;;;1.95;;
1404;SDS011;697;51.114;6.542;2022-07-23T12:27:34;1.73;;;1.63;;
1404;SDS011;697;51.114;6.542;2022-07-23T12:32:49;1.70;;;1.60;;
1404;SDS011;697;51.114;6.542;2022-07-23T12:35:18;2.92;;;1.95;;
1404;SDS011;697;51.114;6.542;2022-07-23T12:37:47;2.45;;;2.03;;
1404;SDS011;697;51.114;6.542;2022-07-23T12:40:20;1.85;;;1.70;;
1404;SDS011;697;51.114;6.542;2022-07-23T12:42:50;3.72;;;2.00;;
1404;SDS011;697;51.114;6.542;2022-07-23T12:45:18;1.63;;;1.52;;
1404;SDS011;697;51.114;6.542;2022-07-23T12:47:52;2.60;;;2.40;;
1404;SDS011;697;51.114;6.542;2022-07-23T12:50:36;4.20;;;2.10;;
1404;SDS011;697;51.114;6.542;2022-07-23T12:53:05;4.07;;;2.80;;
1404;SDS011;697;51.114;6.542;2022-07-23T12:55:33;1.70;;;1.40;;
1404;SDS011;697;51.114;6.542;2022-07-23T12:58:07;1.90;;;1.80;;
1404;SDS011;697;51.114;6.542;2022-07-23T13:00:57;6.43;;;2.17;;
1404;SDS011;697;51.114;6.542;2022-07-23T13:03:26;2.22;;;1.85;;
1404;SDS011;697;51.114;6.542;2022-07-23T13:05:57;3.05;;;2.28;;
1404;SDS011;697;51.114;6.542;2022-07-23T13:08:25;2.05;;;1.77;;
1404;SDS011;697;51.114;6.542;2022-07-23T13:10:54;2.47;;;1.85;;
1404;SDS011;697;51.114;6.542;2022-07-23T13:13:21;3.22;;;2.03;;
1404;SDS011;697;51.114;6.542;2022-07-23T13:15:50;2.45;;;2.00;;
1404;SDS011;697;51.114;6.542;2022-07-23T13:18:18;2.00;;;1.50;;
1404;SDS011;697;51.114;6.542;2022-07-23T13:20:46;2.03;;;1.65;;
1404;SDS011;697;51.114;6.542;2022-07-23T13:23:15;2.65;;;1.90;;
1404;SDS011;697;51.114;6.542;2022-07-23T13:25:44;1.85;;;1.65;;
1404;SDS011;697;51.114;6.542;2022-07-23T13:28:12;1.90;;;1.80;;
1404;SDS011;697;51.114;6.542;2022-07-23T13:30:39;3.15;;;1.55;;
1404;SDS011;697;51.114;6.542;2022-07-23T13:33:06;2.35;;;1.75;;
1404;SDS011;697;51.114;6.542;2022-07-23T13:35:33;1.67;;;1.35;;
1404;SDS011;697;51.114;6.542;2022-07-23T13:38:01;1.23;;;1.10;;
1404;SDS011;697;51.114;6.542;2022-07-23T13:40:30;4.00;;;1.80;;
1404;SDS011;697;51.114;6.542;2022-07-23T13:42:57;1.63;;;1.52;;
1404;SDS011;697;51.114;6.542;2022-07-23T13:45:23;1.63;;;1.52;;
1404;SDS011;697;51.114;6.542;2022-07-23T13:47:50;1.90;;;1.70;;
1404;SDS011;697;51.114;6.542;2022-07-23T13:50:17;3.80;;;1.48;;
1404;SDS011;697;51.114;6.542;2022-07-23T13:52:44;1.35;;;1.25;;
1404;SDS011;697;51.114;6.542;2022-07-23T13:55:10;2.60;;;1.50;;
1404;SDS011;697;51.114;6.542;2022-07-23T13:57:39;1.90;;;1.70;;
1404;SDS011;697;51.114;6.542;2022-07-23T14:00:06;3.85;;;2.10;;
1404;SDS011;697;51.114;6.542;2022-07-23T14:02:36;2.70;;;1.70;;
1404;SDS011;697;51.114;6.542;2022-07-23T14:05:04;1.67;;;1.52;;
1404;SDS011;697;51.114;6.542;2022-07-23T14:07:32;2.08;;;1.83;;
1404;SDS011;697;51.114;6.542;2022-07-23T14:09:59;1.60;;;1.50;;
1404;SDS011;697;51.114;6.542;2022-07-23T14:12:26;3.10;;;2.13;;
1404;SDS011;697;51.114;6.542;2022-07-23T14:14:54;2.88;;;1.85;;
1404;SDS011;697;51.114;6.542;2022-07-23T14:17:21;4.15;;;2.25;;
1404;SDS011;697;51.114;6.542;2022-07-23T14:19:48;2.95;;;1.98;;
1404;SDS011;697;51.114;6.542;2022-07-23T14:22:15;2.95;;;2.13;;
1404;SDS011;697;51.114;6.542;2022-07-23T14:24:42;3.35;;;1.90;;
1404;SDS011;697;51.114;6.542;2022-07-23T14:27:09;8.07;;;1.73;;
1404;SDS011;697;51.114;6.542;2022-07-23T14:29:35;3.25;;;2.17;;
1404;SDS011;697;51.114;6.542;2022-07-23T14:32:04;2.30;;;1.90;;
1404;SDS011;697;51.114;6.542;2022-07-23T14:34:31;2.70;;;2.08;;
1404;SDS011;697;51.114;6.542;2022-07-23T14:36:58;2.42;;;1.77;;
1404;SDS011;697;51.114;6.542;2022-07-23T14:39:25;5.53;;;2.05;;
1404;SDS011;697;51.114;6.542;2022-07-23T14:41:52;5.03;;;1.88;;
1404;SDS011;697;51.114;6.542;2022-07-23T14:44:20;2.20;;;1.63;;
1404;SDS011;697;51.114;6.542;2022-07-23T14:46:46;1.60;;;1.50;;
1404;SDS011;697;51.114;6.542;2022-07-23T14:49:15;2.47;;;1.90;;
1404;SDS011;697;51.114;6.542;2022-07-23T14:51:41;4.97;;;1.50;;
1404;SDS011;697;51.114;6.542;2022-07-23T14:54:09;1.80;;;1.70;;
1404;SDS011;697;51.114;6.542;2022-07-23T14:56:36;2.15;;;1.90;;
1404;SDS011;697;51.114;6.542;2022-07-23T14:59:03;2.60;;;2.30;;
1404;SDS011;697;51.114;6.542;2022-07-23T15:01:30;2.53;;;1.60;;
1404;SDS011;697;51.114;6.542;2022-07-23T15:03:57;2.10;;;1.88;;
1404;SDS011;697;51.114;6.542;2022-07-23T15:06:25;2.30;;;1.90;;
1404;SDS011;697;51.114;6.542;2022-07-23T15:08:52;2.13;;;1.90;;
1404;SDS011;697;51.114;6.542;2022-07-23T15:11:19;2.30;;;2.00;;
1404;SDS011;697;51.114;6.542;2022-07-23T15:13:46;1.90;;;1.70;;
1404;SDS011;697;51.114;6.542;2022-07-23T15:16:13;2.33;;;2.03;;
1404;SDS011;697;51.114;6.542;2022-07-23T15:18:40;2.30;;;2.10;;
1404;SDS011;697;51.114;6.542;2022-07-23T15:21:07;2.35;;;2.10;;
1404;SDS011;697;51.114;6.542;2022-07-23T15:23:35;2.90;;;2.60;;
1404;SDS011;697;51.114;6.542;2022-07-23T15:26:04;2.47;;;2.38;;
1404;SDS011;697;51.114;6.542;2022-07-23T15:28:32;2.25;;;2.13;;
1404;SDS011;697;51.114;6.542;2022-07-23T15:30:59;2.45;;;2.25;;
1404;SDS011;697;51.114;6.542;2022-07-23T15:33:26;2.03;;;1.85;;
1404;SDS011;697;51.114;6.542;2022-07-23T15:35:52;2.67;;;1.98;;
1404;SDS011;697;51.114;6.542;2022-07-23T15:38:21;2.70;;;2.50;;
1404;SDS011;697;51.114;6.542;2022-07-23T15:40:49;2.72;;;2.00;;
1404;SDS011;697;51.114;6.542;2022-07-23T15:43:16;2.88;;;2.30;;
1404;SDS011;697;51.114;6.542;2022-07-23T15:45:43;3.25;;;2.10;;
1404;SDS011;697;51.114;6.542;2022-07-23T15:48:10;2.78;;;2.10;;
1404;SDS011;697;51.114;6.542;2022-07-23T15:50:38;2.28;;;2.08;;
1404;SDS011;697;51.114;6.542;2022-07-23T15:53:05;3.28;;;2.47;;